createdAt,value
2022-08-26T00:02:17.076Z,79.20
2022-08-26T00:04:48.093Z,79.30
2022-08-26T00:07:15.599Z,79.30
2022-08-26T00:09:47.373Z,79.20
2022-08-26T00:12:14.956Z,79.40
2022-08-26T00:14:42.627Z,79.10
2022-08-26T00:17:10.267Z,78.70
2022-08-26T00:19:38.458Z,78.70
2022-08-26T00:22:06.630Z,79.20
2022-08-26T00:24:34.067Z,79.50
2022-08-26T00:27:01.636Z,79.80
2022-08-26T00:29:31.936Z,79.30
2022-08-26T00:32:04.081Z,79.00
2022-08-26T00:34:31.645Z,79.30
2022-08-26T00:36:59.223Z,79.60
2022-08-26T00:39:26.943Z,79.50
2022-08-26T00:41:55.726Z,79.10
2022-08-26T00:44:23.767Z,79.20
2022-08-26T00:47:00.690Z,79.70
2022-08-26T00:49:48.844Z,80.00
2022-08-26T00:52:20.820Z,80.20
2022-08-26T00:55:04.962Z,80.00
2022-08-26T00:57:33.749Z,79.30
2022-08-26T01:00:07.010Z,79.30
2022-08-26T01:02:34.620Z,79.20
2022-08-26T01:05:06.149Z,79.20
2022-08-26T01:07:35.714Z,79.20
2022-08-26T01:10:11.072Z,79.50
2022-08-26T01:12:47.484Z,79.40
2022-08-26T01:15:32.809Z,79.80
2022-08-26T01:18:01.502Z,80.30
2022-08-26T01:20:57.546Z,80.40
2022-08-26T01:23:31.965Z,80.20
2022-08-26T01:26:19.840Z,81.10
2022-08-26T01:28:51.653Z,81.50
2022-08-26T01:31:23.894Z,82.00
2022-08-26T01:34:11.151Z,82.20
2022-08-26T01:36:39.838Z,82.40
2022-08-26T01:39:09.315Z,82.90
2022-08-26T01:41:40.780Z,82.80
2022-08-26T01:44:19.170Z,82.10
2022-08-26T01:46:49.568Z,81.90
2022-08-26T01:49:19.459Z,81.80
2022-08-26T01:51:49.464Z,82.60
2022-08-26T01:54:16.914Z,83.30
2022-08-26T01:56:48.351Z,83.60
2022-08-26T01:59:20.402Z,83.70
2022-08-26T02:01:49.199Z,83.80
2022-08-26T02:04:27.738Z,83.90
2022-08-26T02:06:56.638Z,84.70
2022-08-26T02:09:25.735Z,85.20
2022-08-26T02:11:54.791Z,85.80
2022-08-26T02:14:34.728Z,84.60
2022-08-26T02:17:03.894Z,84.30
2022-08-26T02:19:38.928Z,84.00
2022-08-26T02:22:16.419Z,84.10
2022-08-26T02:24:49.720Z,84.30
2022-08-26T02:27:20.764Z,84.60
2022-08-26T02:29:57.797Z,84.40
2022-08-26T02:32:25.864Z,83.50
2022-08-26T02:34:54.483Z,83.40
2022-08-26T02:37:23.047Z,83.20
2022-08-26T02:39:50.747Z,83.60
2022-08-26T02:42:19.795Z,84.30
2022-08-26T02:44:47.301Z,83.70
2022-08-26T02:47:16.690Z,83.60
2022-08-26T02:49:44.619Z,84.10
2022-08-26T02:52:15.454Z,84.20
2022-08-26T02:54:42.981Z,84.80
2022-08-26T02:57:12.825Z,85.30
2022-08-26T02:59:40.212Z,84.60
2022-08-26T03:02:10.953Z,84.40
2022-08-26T03:04:40.714Z,84.50
2022-08-26T03:07:26.003Z,85.10
2022-08-26T03:09:53.235Z,85.40
2022-08-26T03:12:20.720Z,85.60
2022-08-26T03:14:48.937Z,85.80
2022-08-26T03:17:16.367Z,85.50
2022-08-26T03:19:43.968Z,85.90
2022-08-26T03:22:12.301Z,86.10
2022-08-26T03:24:46.028Z,86.40
2022-08-26T03:27:14.383Z,86.70
2022-08-26T03:30:00.848Z,87.00
2022-08-26T03:32:28.774Z,87.40
2022-08-26T03:34:56.692Z,87.80
2022-08-26T03:37:24.230Z,88.30
2022-08-26T03:39:51.654Z,88.80
2022-08-26T03:42:21.511Z,88.50
2022-08-26T03:44:50.206Z,88.50
2022-08-26T03:47:18.014Z,88.80
2022-08-26T03:49:48.463Z,88.70
2022-08-26T03:52:19.259Z,88.00
2022-08-26T03:54:46.844Z,87.80
2022-08-26T03:57:14.823Z,88.10
2022-08-26T03:59:44.231Z,88.40
2022-08-26T04:02:11.945Z,88.90
2022-08-26T04:04:40.409Z,89.10
2022-08-26T04:07:08.276Z,88.50
2022-08-26T04:09:35.921Z,88.20
2022-08-26T04:12:04.194Z,88.40
2022-08-26T04:14:32.597Z,88.50
2022-08-26T04:17:00.151Z,88.50
2022-08-26T04:19:27.791Z,88.40
2022-08-26T04:21:55.287Z,88.20
2022-08-26T04:24:25.569Z,87.90
2022-08-26T04:26:54.094Z,87.80
2022-08-26T04:29:25.622Z,88.20
2022-08-26T04:31:57.303Z,88.60
2022-08-26T04:34:28.956Z,88.90
2022-08-26T04:36:58.964Z,89.10
2022-08-26T04:39:27.968Z,89.30
2022-08-26T04:41:55.954Z,89.60
2022-08-26T04:44:28.692Z,88.80
2022-08-26T04:46:57.085Z,88.10
2022-08-26T04:49:26.139Z,87.80
2022-08-26T04:51:55.050Z,87.50
2022-08-26T04:54:23.213Z,87.30
2022-08-26T04:56:52.744Z,87.20
2022-08-26T04:59:20.490Z,87.80
2022-08-26T05:01:57.500Z,88.00
2022-08-26T05:04:25.585Z,87.60
2022-08-26T05:06:56.770Z,87.20
2022-08-26T05:09:30.392Z,87.70
2022-08-26T05:11:58.191Z,88.20
2022-08-26T05:14:26.033Z,88.70
2022-08-26T05:16:54.207Z,89.20
2022-08-26T05:19:21.619Z,89.50
2022-08-26T05:21:49.473Z,88.80
2022-08-26T05:24:18.312Z,88.70
2022-08-26T05:26:46.940Z,88.60
2022-08-26T05:29:16.086Z,88.90
2022-08-26T05:31:44.360Z,89.00
2022-08-26T05:34:11.809Z,89.30
2022-08-26T05:36:40.336Z,89.20
2022-08-26T05:39:10.414Z,89.30
2022-08-26T05:41:41.249Z,89.30
2022-08-26T05:44:13.947Z,89.30
2022-08-26T05:46:44.012Z,89.20
2022-08-26T05:49:13.921Z,88.80
2022-08-26T05:51:45.383Z,88.60
2022-08-26T05:54:15.026Z,88.30
2022-08-26T05:56:53.736Z,88.00
2022-08-26T05:59:24.629Z,88.10
2022-08-26T06:01:53.829Z,87.40
2022-08-26T06:04:22.494Z,86.90
2022-08-26T06:06:52.447Z,85.40
2022-08-26T06:09:20.138Z,84.90
2022-08-26T06:11:49.228Z,85.00
2022-08-26T06:14:17.749Z,84.30
2022-08-26T06:16:46.615Z,83.60
2022-08-26T06:19:15.871Z,82.80
2022-08-26T06:21:54.069Z,82.00
2022-08-26T06:24:41.113Z,81.90
2022-08-26T06:27:13.897Z,81.50
2022-08-26T06:29:42.777Z,80.70
2022-08-26T06:32:10.290Z,80.50
2022-08-26T06:34:38.499Z,79.00
2022-08-26T06:37:06.688Z,78.80
2022-08-26T06:39:34.731Z,78.70
2022-08-26T06:44:34.901Z,98.80
2022-08-26T06:47:02.476Z,76.80
2022-08-26T06:49:30.172Z,76.70
2022-08-26T06:51:59.289Z,75.40
2022-08-26T06:54:30.488Z,75.50
2022-08-26T06:56:58.706Z,75.20
2022-08-26T06:59:26.410Z,74.10
2022-08-26T07:01:55.049Z,73.10
2022-08-26T07:04:25.151Z,74.00
2022-08-26T07:06:56.574Z,72.40
2022-08-26T07:09:30.505Z,72.10
2022-08-26T07:11:58.346Z,72.40
2022-08-26T07:14:26.713Z,72.00
2022-08-26T07:16:55.614Z,71.90
2022-08-26T07:19:29.982Z,71.50
2022-08-26T07:22:04.802Z,70.30
2022-08-26T07:24:36.441Z,70.40
2022-08-26T07:27:08.747Z,69.70
2022-08-26T07:29:37.900Z,69.80
2022-08-26T07:32:06.777Z,68.90
2022-08-26T07:34:34.434Z,68.80
2022-08-26T07:37:02.411Z,67.80
2022-08-26T07:39:31.873Z,67.70
2022-08-26T07:42:07.494Z,66.10
2022-08-26T07:44:37.910Z,66.30
2022-08-26T07:47:10.441Z,66.40
2022-08-26T07:49:57.612Z,65.50
2022-08-26T07:52:28.545Z,65.60
2022-08-26T07:55:01.716Z,64.60
2022-08-26T08:35:14.803Z,57.20
2022-08-26T08:37:44.301Z,57.30
2022-08-26T08:40:18.998Z,55.90
2022-08-26T08:43:04.150Z,55.30
2022-08-26T08:45:47.247Z,55.40
2022-08-26T08:48:36.395Z,53.80
2022-08-26T08:51:54.262Z,52.80
2022-08-26T08:54:26.580Z,52.30
2022-08-26T08:57:04.271Z,52.30
2022-08-26T08:59:35.916Z,51.70
2022-08-26T09:02:26.892Z,51.10
2022-08-26T09:05:15.568Z,51.10
2022-08-26T09:08:03.640Z,52.20
2022-08-26T09:10:45.145Z,52.10
2022-08-26T09:13:24.970Z,52.10
2022-08-26T09:15:59.498Z,52.80
2022-08-26T09:18:47.107Z,53.00
2022-08-26T09:21:17.937Z,53.30
2022-08-26T09:23:49.546Z,53.60
2022-08-26T09:26:45.216Z,54.00
2022-08-26T09:29:24.354Z,53.70
2022-08-26T09:32:13.341Z,52.90
2022-08-26T09:34:59.185Z,53.70
2022-08-26T09:37:39.950Z,53.10
2022-08-26T09:40:30.448Z,53.50
2022-08-26T09:43:23.031Z,53.60
2022-08-26T09:46:22.887Z,53.50
2022-08-26T09:48:53.058Z,53.00
2022-08-26T09:51:23.268Z,53.30
2022-08-26T09:53:59.798Z,54.00
2022-08-26T09:56:40.365Z,54.00
2022-08-26T09:59:12.289Z,54.90
2022-08-26T10:01:43.841Z,54.70
2022-08-26T10:04:26.761Z,56.00
2022-08-26T10:07:07.627Z,56.10
2022-08-26T10:09:42.544Z,56.00
2022-08-26T10:12:21.623Z,55.90
2022-08-26T10:15:00.615Z,56.00
2022-08-26T10:18:16.267Z,55.60
2022-08-26T10:21:28.828Z,55.10
2022-08-26T10:24:01.095Z,54.20
2022-08-26T10:26:46.587Z,53.50
2022-08-26T10:29:21.422Z,53.90
2022-08-26T10:32:02.550Z,53.60
2022-08-26T10:34:33.139Z,53.90
2022-08-26T10:37:13.647Z,53.50
2022-08-26T10:40:00.890Z,52.50
2022-08-26T10:42:43.592Z,52.80
2022-08-26T10:45:20.724Z,51.70
2022-08-26T10:48:01.940Z,50.90
2022-08-26T10:50:42.922Z,49.70
2022-08-26T10:53:46.836Z,50.00
2022-08-26T10:57:29.334Z,49.30
2022-08-26T11:00:33.069Z,48.90
2022-08-26T11:03:29.490Z,49.00
2022-08-26T11:06:18.488Z,47.80
2022-08-26T11:08:51.648Z,48.90
2022-08-26T11:11:41.135Z,48.90
2022-08-26T11:14:29.062Z,48.10
2022-08-26T11:16:59.868Z,47.10
2022-08-26T11:19:59.392Z,45.50
2022-08-26T11:22:32.403Z,45.70
2022-08-26T11:25:18.237Z,44.60
2022-08-26T11:27:49.576Z,44.50
2022-08-26T11:30:18.464Z,45.40
2022-08-26T11:32:54.740Z,44.80
2022-08-26T11:35:24.848Z,44.80
2022-08-26T11:38:04.322Z,44.60
2022-08-26T11:40:41.992Z,45.00
2022-08-26T11:43:19.667Z,46.00
2022-08-26T11:46:02.325Z,45.50
2022-08-26T11:48:33.685Z,46.10
2022-08-26T11:51:12.425Z,45.00
2022-08-26T11:53:49.107Z,44.00
2022-08-26T11:56:37.131Z,45.20
2022-08-26T11:59:12.419Z,42.60
2022-08-26T12:01:45.520Z,43.40
2022-08-26T12:04:29.256Z,39.90
2022-08-26T12:06:59.286Z,39.90
2022-08-26T12:09:37.064Z,39.70
2022-08-26T12:12:14.548Z,39.90
2022-08-26T12:14:42.950Z,40.30
2022-08-26T12:17:19.299Z,39.90
2022-08-26T12:19:50.150Z,39.40
2022-08-26T12:22:30.943Z,40.30
2022-08-26T12:25:02.094Z,38.30
2022-08-26T12:30:26.899Z,36.60
2022-08-26T12:33:22.482Z,36.30
2022-08-26T12:35:56.687Z,35.20
2022-08-26T12:38:26.629Z,34.50
2022-08-26T12:40:55.234Z,34.50
2022-08-26T12:43:46.376Z,32.80
2022-08-26T12:46:18.635Z,32.80
2022-08-26T12:48:49.700Z,33.20
2022-08-26T12:51:43.136Z,34.40
2022-08-26T12:54:16.196Z,35.50
2022-08-26T12:56:44.004Z,37.00
2022-08-26T12:59:26.429Z,37.60
2022-08-26T13:01:54.818Z,36.10
2022-08-26T13:05:00.735Z,36.60
2022-08-26T13:07:28.591Z,37.40
2022-08-26T13:09:59.157Z,35.40
2022-08-26T13:12:35.334Z,34.70
2022-08-26T13:15:05.166Z,34.50
2022-08-26T13:17:32.889Z,34.00
2022-08-26T13:20:04.017Z,33.70
2022-08-26T13:22:32.666Z,34.50
2022-08-26T13:25:00.656Z,35.00
2022-08-26T13:27:28.813Z,35.60
2022-08-26T13:29:57.948Z,36.60
2022-08-26T13:32:27.482Z,36.80
2022-08-26T13:34:57.092Z,37.70
2022-08-26T13:37:35.072Z,38.50
2022-08-26T13:40:07.977Z,38.80
2022-08-26T13:42:35.963Z,38.30
2022-08-26T13:45:04.674Z,39.20
2022-08-26T13:47:32.455Z,39.70
2022-08-26T13:49:59.930Z,39.10
2022-08-26T13:52:31.194Z,40.20
2022-08-26T13:55:00.938Z,40.30
2022-08-26T13:57:30.438Z,40.60
2022-08-26T13:59:59.707Z,40.50
2022-08-26T14:02:28.539Z,40.60
2022-08-26T14:04:56.227Z,40.90
2022-08-26T14:07:24.967Z,41.10
2022-08-26T14:09:52.770Z,40.80
2022-08-26T14:12:20.505Z,41.30
2022-08-26T14:14:50.890Z,41.30
2022-08-26T14:17:23.222Z,41.50
2022-08-26T14:19:52.498Z,41.30
2022-08-26T14:22:22.691Z,40.40
2022-08-26T14:24:50.852Z,40.30
2022-08-26T14:27:18.486Z,40.20
2022-08-26T14:29:46.056Z,39.80
2022-08-26T14:32:25.841Z,40.00
2022-08-26T14:34:54.477Z,39.60
2022-08-26T14:37:22.606Z,39.40
2022-08-26T14:39:50.917Z,39.90
2022-08-26T14:42:31.556Z,40.50
2022-08-26T14:45:04.021Z,40.20
2022-08-26T14:47:31.722Z,39.70
2022-08-26T14:49:59.626Z,39.60
2022-08-26T14:52:28.001Z,39.60
2022-08-26T14:54:55.704Z,39.60
2022-08-26T14:57:23.260Z,39.40
2022-08-26T14:59:51.043Z,39.10
2022-08-26T15:02:32.615Z,38.90
2022-08-26T15:05:02.873Z,38.40
2022-08-26T15:07:30.849Z,38.40
2022-08-26T15:09:58.646Z,39.60
2022-08-26T15:12:26.691Z,40.80
2022-08-26T15:14:54.267Z,41.70
2022-08-26T15:17:21.816Z,43.00
2022-08-26T15:19:49.353Z,44.00
2022-08-26T15:22:17.140Z,44.40
2022-08-26T15:24:44.693Z,45.40
2022-08-26T15:27:12.715Z,46.50
2022-08-26T15:29:40.874Z,46.40
2022-08-26T15:32:08.583Z,47.30
2022-08-26T15:34:36.202Z,48.20
2022-08-26T15:37:03.888Z,48.20
2022-08-26T15:39:32.419Z,48.40
2022-08-26T15:42:00.123Z,48.70
2022-08-26T15:44:27.980Z,48.70
2022-08-26T15:46:58.794Z,49.00
2022-08-26T15:49:27.919Z,49.60
2022-08-26T15:51:55.901Z,49.90
2022-08-26T15:54:24.806Z,50.50
2022-08-26T15:56:53.474Z,51.30
2022-08-26T15:59:22.600Z,51.90
2022-08-26T16:01:51.110Z,52.10
2022-08-26T16:04:18.911Z,52.50
2022-08-26T16:06:50.527Z,52.30
2022-08-26T16:09:19.882Z,52.20
2022-08-26T16:11:47.414Z,52.50
2022-08-26T16:14:15.116Z,52.80
2022-08-26T16:24:11.884Z,55.50
2022-08-26T16:26:42.446Z,56.50
2022-08-26T16:29:13.677Z,56.50
2022-08-26T16:31:42.596Z,56.80
2022-08-26T16:34:10.750Z,57.10
2022-08-26T16:36:39.855Z,57.30
2022-08-26T16:39:08.978Z,57.50
2022-08-26T16:41:37.410Z,57.80
2022-08-26T16:44:07.019Z,58.10
2022-08-26T16:46:35.871Z,59.10
2022-08-26T16:49:04.898Z,59.20
2022-08-26T16:51:32.965Z,59.40
2022-08-26T16:54:08.971Z,59.60
2022-08-26T16:56:37.928Z,59.90
2022-08-26T16:59:10.832Z,60.60
2022-08-26T17:01:38.660Z,61.90
2022-08-26T17:04:06.706Z,61.90
2022-08-26T17:06:34.659Z,63.50
2022-08-26T17:09:02.566Z,64.10
2022-08-26T17:11:30.718Z,65.00
2022-08-26T17:13:58.604Z,65.30
2022-08-26T17:16:27.327Z,66.10
2022-08-26T17:18:57.212Z,67.70
2022-08-26T17:21:26.137Z,67.50
2022-08-26T17:23:53.983Z,67.80
2022-08-26T17:26:22.367Z,68.20
2022-08-26T17:28:51.198Z,67.90
2022-08-26T17:31:19.455Z,67.60
2022-08-26T17:33:53.581Z,67.90
2022-08-26T17:36:27.707Z,67.50
2022-08-26T17:38:57.392Z,68.10
2022-08-26T17:41:26.206Z,68.40
2022-08-26T17:43:54.003Z,67.90
2022-08-26T17:46:21.620Z,67.30
2022-08-26T17:48:49.303Z,67.10
2022-08-26T17:51:19.564Z,67.10
2022-08-26T17:53:49.108Z,67.70
2022-08-26T17:56:21.104Z,67.80
2022-08-26T17:58:52.467Z,68.10
2022-08-26T18:01:28.356Z,68.70
2022-08-26T18:04:00.283Z,69.00
2022-08-26T18:06:30.638Z,70.10
2022-08-26T18:09:01.078Z,70.60
